createdAt,value
2019-04-06T00:01:01.438Z,9.06
2019-04-06T00:06:08.017Z,8.84
2019-04-06T00:11:13.374Z,8.76
2019-04-06T00:16:18.791Z,8.76
2019-04-06T00:21:24.872Z,8.86
2019-04-06T00:26:30.128Z,8.76
2019-04-06T00:31:39.961Z,8.65
2019-04-06T00:36:45.590Z,8.59
2019-04-06T00:41:51.011Z,8.54
2019-04-06T00:46:56.590Z,8.38
2019-04-06T00:52:01.871Z,8.38
2019-04-06T00:57:07.332Z,8.32
2019-04-06T01:02:12.804Z,8.25
2019-04-06T01:07:18.047Z,8.10
2019-04-06T01:12:23.921Z,8.16
2019-04-06T01:17:29.740Z,8.17
2019-04-06T01:22:35.408Z,8.09
2019-04-06T01:27:40.915Z,8.01
2019-04-06T01:32:46.099Z,8.00
2019-04-06T01:37:51.445Z,7.92
2019-04-06T01:42:56.788Z,7.84
2019-04-06T01:48:02.450Z,7.89
2019-04-06T01:53:07.728Z,7.82
2019-04-06T01:58:12.865Z,7.76
2019-04-06T02:03:18.477Z,7.69
2019-04-06T02:08:23.790Z,7.63
2019-04-06T02:13:29.401Z,7.66
2019-04-06T02:18:34.819Z,7.61
2019-04-06T02:23:40.468Z,7.54
2019-04-06T02:28:46.258Z,7.40
2019-04-06T02:33:59.008Z,7.38
2019-04-06T02:39:23.183Z,7.34
2019-04-06T02:44:28.784Z,7.17
2019-04-06T02:49:33.966Z,7.16
2019-04-06T02:54:40.638Z,7.07
2019-04-06T02:59:46.258Z,6.98
2019-04-06T03:04:51.694Z,7.15
2019-04-06T03:09:57.305Z,6.97
2019-04-06T03:15:02.602Z,6.87
2019-04-06T03:20:07.981Z,6.68
2019-04-06T03:25:13.771Z,6.68
2019-04-06T03:30:19.771Z,6.64
2019-04-06T03:35:25.295Z,6.69
2019-04-06T03:40:30.673Z,6.69
2019-04-06T03:45:36.062Z,6.65
2019-04-06T03:50:42.142Z,6.56
2019-04-06T03:55:47.953Z,6.59
2019-04-06T04:00:53.039Z,6.50
2019-04-06T04:05:59.111Z,6.47
2019-04-06T04:11:04.767Z,6.34
2019-04-06T04:16:10.260Z,6.29
2019-04-06T04:21:16.006Z,6.32
2019-04-06T04:26:21.207Z,6.35
2019-04-06T04:31:26.595Z,6.41
2019-04-06T04:36:32.067Z,6.48
2019-04-06T04:41:39.556Z,6.50
2019-04-06T04:46:46.497Z,6.55
2019-04-06T04:51:52.721Z,6.60
2019-04-06T04:56:59.746Z,6.53
2019-04-06T05:02:05.923Z,6.61
2019-04-06T05:07:11.330Z,6.78
2019-04-06T05:12:16.544Z,6.94
2019-04-06T05:17:22.210Z,6.99
2019-04-06T05:22:27.980Z,7.12
2019-04-06T05:27:35.287Z,7.37
2019-04-06T05:32:40.533Z,7.48
2019-04-06T05:37:45.780Z,7.50
2019-04-06T05:42:51.700Z,7.67
2019-04-06T05:47:57.225Z,7.73
2019-04-06T05:53:02.704Z,8.07
2019-04-06T05:58:10.655Z,8.22
2019-04-06T06:03:15.506Z,8.22
2019-04-06T06:08:21.192Z,8.38
2019-04-06T06:13:26.686Z,8.50
2019-04-06T06:18:32.150Z,8.68
2019-04-06T06:23:37.818Z,8.84
2019-04-06T06:28:43.269Z,9.05
2019-04-06T06:33:48.874Z,9.28
2019-04-06T06:38:54.251Z,9.51
2019-04-06T06:43:59.677Z,9.73
2019-04-06T06:49:05.319Z,9.97
2019-04-06T06:54:10.817Z,10.09
2019-04-06T06:59:16.557Z,10.27
2019-04-06T07:04:22.133Z,10.39
2019-04-06T07:09:27.813Z,10.50
2019-04-06T07:14:33.060Z,10.56
2019-04-06T07:19:38.521Z,10.63
2019-04-06T07:24:43.810Z,10.76
2019-04-06T07:29:49.311Z,10.87
2019-04-06T07:34:54.824Z,10.93
2019-04-06T07:40:00.464Z,10.97
2019-04-06T07:45:07.860Z,11.12
2019-04-06T07:50:14.586Z,11.33
2019-04-06T07:55:19.771Z,11.53
2019-04-06T08:00:29.172Z,11.54
2019-04-06T08:05:34.508Z,11.70
2019-04-06T08:10:40.496Z,11.82
2019-04-06T08:15:46.746Z,11.85
2019-04-06T08:20:52.232Z,11.92
2019-04-06T08:25:57.574Z,12.10
2019-04-06T08:31:03.193Z,12.32
2019-04-06T08:36:10.044Z,12.31
2019-04-06T08:41:15.794Z,12.18
2019-04-06T08:46:21.505Z,12.30
2019-04-06T08:51:26.960Z,12.41
2019-04-06T08:56:32.188Z,12.59
2019-04-06T09:01:37.954Z,12.59
2019-04-06T09:06:43.900Z,12.61
2019-04-06T09:11:49.611Z,12.68
2019-04-06T09:16:55.438Z,12.71
2019-04-06T09:22:01.743Z,12.72
2019-04-06T09:27:07.516Z,12.84
2019-04-06T09:32:13.796Z,12.78
2019-04-06T09:37:19.159Z,12.87
2019-04-06T09:42:24.723Z,13.01
2019-04-06T09:47:31.646Z,13.03
2019-04-06T09:52:41.720Z,13.15
2019-04-06T09:58:07.056Z,13.28
2019-04-06T10:03:23.257Z,13.39
2019-04-06T10:08:39.255Z,13.48
2019-04-06T10:13:52.402Z,13.55
2019-04-06T10:19:17.529Z,13.63
2019-04-06T10:24:26.894Z,13.78
2019-04-06T10:29:33.640Z,13.96
2019-04-06T10:34:49.624Z,14.05
2019-04-06T10:40:05.582Z,14.02
2019-04-06T10:45:12.729Z,14.30
2019-04-06T10:50:19.876Z,14.07
2019-04-06T10:55:30.057Z,14.25
2019-04-06T11:00:46.399Z,14.37
2019-04-06T11:05:53.763Z,14.52
2019-04-06T11:11:19.369Z,14.36
2019-04-06T11:16:42.776Z,14.59
2019-04-06T11:21:52.653Z,14.88
2019-04-06T11:27:00.158Z,15.18
2019-04-06T11:32:07.383Z,15.40
2019-04-06T11:37:33.178Z,15.27
2019-04-06T11:42:52.329Z,15.42
2019-04-06T11:47:59.783Z,15.53
2019-04-06T11:53:06.965Z,15.24
2019-04-06T11:58:14.262Z,15.38
2019-04-06T12:03:26.936Z,15.56
2019-04-06T12:08:50.399Z,15.48
2019-04-06T12:13:59.775Z,15.22
2019-04-06T12:19:07.263Z,15.45
2019-04-06T12:24:29.730Z,15.04
2019-04-06T12:29:39.547Z,14.92
2019-04-06T12:34:56.380Z,15.09
2019-04-06T12:40:04.115Z,15.39
2019-04-06T12:45:14.187Z,15.72
2019-04-06T12:50:30.599Z,16.26
2019-04-06T12:55:49.732Z,16.24
2019-04-06T13:01:02.691Z,16.66
2019-04-06T13:06:25.836Z,17.06
2019-04-06T13:11:33.125Z,17.07
2019-04-06T13:16:40.105Z,17.54
2019-04-06T13:22:03.579Z,17.63
2019-04-06T13:27:10.866Z,17.76
2019-04-06T13:32:33.104Z,18.44
2019-04-06T13:41:13.427Z,20.29
2019-04-06T13:46:32.623Z,22.01
2019-04-06T13:51:39.951Z,21.99
2019-04-06T13:56:56.171Z,22.82
2019-04-06T14:02:06.024Z,23.18
2019-04-06T14:07:16.048Z,23.13
2019-04-06T14:12:22.778Z,22.84
2019-04-06T14:17:41.754Z,23.41
2019-04-06T14:22:51.449Z,23.33
2019-04-06T14:28:10.966Z,22.54
2019-04-06T14:33:37.263Z,22.90
2019-04-06T14:39:02.181Z,22.62
2019-04-06T14:44:20.610Z,22.96
2019-04-06T14:49:44.177Z,22.75
2019-04-06T14:54:51.941Z,23.19
2019-04-06T15:00:02.087Z,23.09
2019-04-06T15:05:19.042Z,23.65
2019-04-06T15:10:42.091Z,24.35
2019-04-06T15:15:51.351Z,23.99
2019-04-06T15:21:16.577Z,23.55
2019-04-06T15:26:29.017Z,22.74
2019-04-06T15:31:35.996Z,21.96
2019-04-06T15:36:48.823Z,22.21
2019-04-06T15:41:58.600Z,21.61
2019-04-06T15:47:23.276Z,19.76
2019-04-06T15:52:30.663Z,19.34
2019-04-06T15:57:40.897Z,18.74
2019-04-06T16:02:51.185Z,17.47
2019-04-06T16:08:04.157Z,16.50
2019-04-06T16:13:27.071Z,16.11
2019-04-06T16:18:43.097Z,15.76
2019-04-06T16:24:03.516Z,15.34
2019-04-06T16:29:07.743Z,14.85
2019-04-06T16:34:18.628Z,14.80
2019-04-06T16:39:28.568Z,14.66
2019-04-06T16:44:35.667Z,14.48
2019-04-06T16:49:59.188Z,14.31
2019-04-06T16:55:13.162Z,14.28
2019-04-06T17:00:29.257Z,14.01
2019-04-06T17:05:39.816Z,14.01
2019-04-06T17:10:47.263Z,13.93
2019-04-06T17:16:06.412Z,13.88
2019-04-06T17:21:16.390Z,13.63
2019-04-06T17:26:25.449Z,13.64
2019-04-06T17:31:32.199Z,13.47
2019-04-06T17:36:55.030Z,13.39
2019-04-06T17:42:02.157Z,13.26
2019-04-06T17:47:16.245Z,13.08
2019-04-06T17:52:29.150Z,13.04
2019-04-06T17:57:48.272Z,12.91
2019-04-06T18:03:08.014Z,12.83
2019-04-06T18:08:16.556Z,12.76
2019-04-06T18:13:26.653Z,12.58
2019-04-06T18:18:31.918Z,12.50
2019-04-06T18:23:38.143Z,12.42
2019-04-06T18:28:43.775Z,12.23
2019-04-06T18:33:49.216Z,12.14
2019-04-06T18:38:56.522Z,12.18
2019-04-06T18:44:02.530Z,12.17
2019-04-06T18:49:08.922Z,12.21
2019-04-06T18:54:14.286Z,12.20
2019-04-06T18:59:20.643Z,12.15
2019-04-06T19:04:25.988Z,11.98
2019-04-06T19:09:31.747Z,11.85
2019-04-06T19:14:37.231Z,11.76
2019-04-06T19:19:43.385Z,11.53
2019-04-06T19:24:48.798Z,11.39
2019-04-06T19:29:54.199Z,11.29
2019-04-06T19:34:59.726Z,11.10
2019-04-06T19:40:07.482Z,11.07
2019-04-06T19:45:13.559Z,10.86
2019-04-06T19:50:19.239Z,10.83
2019-04-06T19:55:24.643Z,10.63
2019-04-06T20:00:30.182Z,10.67
2019-04-06T20:05:35.609Z,10.64
2019-04-06T20:10:40.896Z,10.42
2019-04-06T20:15:46.487Z,10.32
2019-04-06T20:20:52.102Z,10.21
2019-04-06T20:25:57.801Z,10.21
2019-04-06T20:31:02.958Z,9.99
2019-04-06T20:36:08.322Z,10.08
2019-04-06T20:41:13.848Z,10.00
2019-04-06T20:46:20.473Z,9.84
2019-04-06T20:51:26.202Z,9.68
2019-04-06T20:56:31.641Z,9.66
2019-04-06T21:01:37.520Z,9.67
2019-04-06T21:06:43.734Z,9.64
2019-04-06T21:11:49.629Z,9.65
2019-04-06T21:16:55.647Z,9.47
2019-04-06T21:22:01.330Z,9.43
2019-04-06T21:27:07.663Z,9.39
2019-04-06T21:32:13.861Z,9.23
2019-04-06T21:37:21.093Z,9.15
2019-04-06T21:42:26.850Z,9.09
2019-04-06T21:47:32.469Z,9.03
2019-04-06T21:52:38.822Z,9.07
2019-04-06T21:57:44.150Z,8.96
2019-04-06T22:02:50.163Z,8.73
2019-04-06T22:07:56.176Z,8.80
2019-04-06T22:13:01.802Z,8.69
2019-04-06T22:18:07.831Z,8.73
2019-04-06T22:23:13.171Z,8.70
2019-04-06T22:28:19.230Z,8.55
2019-04-06T22:33:25.098Z,8.61
2019-04-06T22:38:30.903Z,8.31
2019-04-06T22:43:36.543Z,8.31
2019-04-06T22:48:42.571Z,8.19
2019-04-06T22:53:49.201Z,8.21
2019-04-06T22:58:54.354Z,8.24
2019-04-06T23:04:04.776Z,8.22
2019-04-06T23:09:11.024Z,8.19
2019-04-06T23:14:16.932Z,8.11
2019-04-06T23:19:22.584Z,8.04
2019-04-06T23:24:28.347Z,8.06
2019-04-06T23:29:34.766Z,7.92
2019-04-06T23:34:41.223Z,7.84
2019-04-06T23:39:46.430Z,7.83
2019-04-06T23:44:51.702Z,7.80
2019-04-06T23:49:57.460Z,7.68
2019-04-06T23:55:04.998Z,7.71
